Terminal Aerodrome Forecast
Issued by NWS

Home | Current Version | Previous Version | Text Only | Print | Product List | Glossary On
Versions: 1 2 3 4 5 6 7 8 9 10 11 12 13 14 15
000
FTUS45 KPIH 200100 AAA
TAFSUN
TAF AMD
KSUN 200155Z 2002/2024 14010KT P6SM SKC
     FM200300 32009KT P6SM SCT100
     FM201700 13008KT P6SM SKC
      AMD LTD TO CLD VIS AND WIND 2005/2013=

USA.gov is the U.S. government's official web portal to all federal, state and local government web resources and services.